Time;durP1;ratioP1;P1;durP2;ratioP2;P2;SDS_P1;SDS_P2;PMS_P1;PMS_P2;Temp;Humidity;BMP_temperature;BMP_pressure;BME280_temperature;BME280_humidity;BME280_pressure;Samples;Min_cycle;Max_cycle;Signal;HPM_P1;HPM_P2
2023/04/19 00:02:17;;;;;;;18.23;14.20;;;;;;;8.48;88.89;96085.38;6220402;23;20200;-83
2023/04/19 00:04:43;;;;;;;21.43;16.70;;;;;;;8.39;88.78;96080.94;6195442;23;20281;-83
2023/04/19 00:07:09;;;;;;;21.63;15.83;;;;;;;8.51;88.57;96076.53;6219445;23;20180;-83
2023/04/19 00:09:34;;;;;;;20.60;15.60;;;;;;;8.56;88.58;96082.16;6220254;23;20187;-81
2023/04/19 00:12:00;;;;;;;22.00;16.53;;;;;;;8.47;88.93;96083.69;6195036;23;20158;-81
2023/04/19 00:14:25;;;;;;;18.90;14.33;;;;;;;8.49;89.04;96073.25;6219799;23;20153;-82
2023/04/19 00:16:50;;;;;;;20.27;15.00;;;;;;;8.48;88.85;96079.34;6219561;23;20268;-81
2023/04/19 00:19:16;;;;;;;22.00;15.53;;;;;;;8.44;89.22;96076.19;6219909;23;20165;-82
2023/04/19 00:21:41;;;;;;;21.90;15.47;;;;;;;8.39;89.62;96075.75;6219582;23;20500;-82
2023/04/19 00:24:07;;;;;;;22.40;16.07;;;;;;;8.32;89.92;96082.31;6219522;23;20188;-82
2023/04/19 00:26:32;;;;;;;22.83;16.63;;;;;;;8.37;89.77;96076.78;6193201;23;20179;-82
2023/04/19 00:28:57;;;;;;;22.03;15.33;;;;;;;8.38;89.60;96076.66;6221132;23;20192;-83
2023/04/19 00:31:23;;;;;;;24.50;17.10;;;;;;;8.40;89.30;96073.97;6194639;23;20160;-82
2023/04/19 00:33:48;;;;;;;24.30;17.53;;;;;;;8.26;90.40;96076.78;6220027;23;20161;-82
2023/04/19 00:36:13;;;;;;;21.13;15.97;;;;;;;8.35;90.20;96076.09;6219215;23;20161;-82
2023/04/19 00:38:39;;;;;;;22.37;16.83;;;;;;;8.25;90.38;96075.97;6194916;23;20161;-81
2023/04/19 00:41:04;;;;;;;23.50;16.73;;;;;;;8.17;90.72;96068.81;6219974;23;20180;-82
2023/04/19 00:43:30;;;;;;;23.03;16.67;;;;;;;8.28;90.33;96069.72;6244841;23;20244;-82
2023/04/19 00:45:55;;;;;;;23.67;16.97;;;;;;;8.34;90.21;96070.06;6193547;23;20243;-82
2023/04/19 00:48:21;;;;;;;23.10;17.47;;;;;;;8.30;89.76;96067.84;6219311;23;20173;-82
2023/04/19 00:50:46;;;;;;;23.70;16.67;;;;;;;8.17;90.90;96067.97;6194442;23;20208;-81
2023/04/19 00:53:11;;;;;;;24.67;18.80;;;;;;;8.01;92.34;96073.53;6259327;23;20582;-82
2023/04/19 00:55:41;;;;;;;24.47;17.40;;;;;;;8.13;91.66;96075.19;6238503;23;20383;-82
2023/04/19 00:58:07;;;;;;;21.93;17.03;;;;;;;8.19;91.27;96061.75;6221380;23;20248;-82
2023/04/19 01:00:33;;;;;;;23.33;17.50;;;;;;;8.09;91.95;96053.06;6195674;23;20177;-82
2023/04/19 01:02:58;;;;;;;25.80;18.83;;;;;;;8.12;91.88;96057.16;6220133;23;20201;-82
2023/04/19 01:05:23;;;;;;;24.97;17.70;;;;;;;8.18;91.62;96061.88;6220446;23;20236;-82
2023/04/19 01:07:48;;;;;;;26.43;18.23;;;;;;;8.24;90.60;96059.63;6218829;23;20209;-82
2023/04/19 01:10:14;;;;;;;25.93;18.33;;;;;;;8.28;91.18;96056.78;6193720;23;20154;-83
2023/04/19 01:12:39;;;;;;;25.33;16.97;;;;;;;8.20;90.95;96049.63;6219838;23;20642;-82
2023/04/19 01:15:05;;;;;;;23.27;17.30;;;;;;;8.19;91.20;96051.38;6220035;23;20161;-84
2023/04/19 01:17:31;;;;;;;25.67;17.30;;;;;;;8.08;91.95;96048.00;6193922;23;20177;-82
2023/04/19 01:20:05;;;;;;;23.60;17.17;;;;;;;8.00;93.20;96051.19;6219222;23;20185;-81
2023/04/19 01:22:30;;;;;;;26.57;18.87;;;;;;;8.01;92.25;96052.00;6219753;23;20240;-81
2023/04/19 01:24:56;;;;;;;25.90;17.60;;;;;;;8.14;91.52;96045.78;6219387;23;20153;-80
2023/04/19 01:27:22;;;;;;;24.87;17.17;;;;;;;8.18;91.48;96043.75;6218342;23;20247;-82
2023/04/19 01:29:47;;;;;;;23.30;17.50;;;;;;;8.24;90.40;96038.94;6219859;23;20223;-82
2023/04/19 01:32:13;;;;;;;27.13;18.03;;;;;;;8.14;91.23;96038.00;6194996;23;20232;-82
2023/04/19 01:34:38;;;;;;;27.97;18.80;;;;;;;8.15;91.61;96044.81;6218633;23;20161;-82
2023/04/19 01:37:04;;;;;;;24.50;18.10;;;;;;;8.18;90.82;96034.22;6218483;23;20236;-81
2023/04/19 01:39:29;;;;;;;25.93;18.40;;;;;;;8.09;91.63;96037.53;6219518;23;20189;-81
2023/04/19 01:41:54;;;;;;;25.37;17.50;;;;;;;7.89;92.91;96027.94;6218316;23;20180;-83
2023/04/19 01:44:20;;;;;;;26.30;18.47;;;;;;;8.00;91.60;96027.91;6219049;23;20165;-83
2023/04/19 01:46:45;;;;;;;27.87;19.27;;;;;;;8.01;91.39;96028.72;6217927;23;20558;-83
2023/04/19 01:49:10;;;;;;;27.47;18.67;;;;;;;8.00;91.78;96025.31;6245360;23;20154;-82
2023/04/19 01:51:37;;;;;;;26.90;19.03;;;;;;;7.95;91.99;96032.59;6218777;23;20145;-82
2023/04/19 01:54:02;;;;;;;31.83;18.73;;;;;;;7.94;91.92;96026.63;6218484;23;20198;-83
2023/04/19 01:56:28;;;;;;;29.23;19.27;;;;;;;7.78;92.75;96021.03;6217330;23;20482;-83
2023/04/19 01:58:53;;;;;;;26.47;18.93;;;;;;;7.88;92.89;96021.13;6218224;23;20161;-82
2023/04/19 02:01:19;;;;;;;27.27;18.70;;;;;;;7.92;91.87;96025.09;6218322;23;20173;-82
2023/04/19 02:03:45;;;;;;;28.30;18.70;;;;;;;7.92;92.37;96022.50;6193433;23;20161;-83
2023/04/19 02:06:13;;;;;;;28.57;19.20;;;;;;;7.99;91.23;96018.50;6217280;23;20157;-83
2023/04/19 02:08:40;;;;;;;26.80;18.83;;;;;;;7.83;93.01;96013.72;6219536;23;20196;-82
2023/04/19 02:11:09;;;;;;;28.57;18.30;;;;;;;7.87;92.86;96014.31;6193444;23;20219;-82
2023/04/19 02:13:35;;;;;;;27.17;19.10;;;;;;;7.97;92.67;96011.81;6218018;23;20275;-82
2023/04/19 02:16:01;;;;;;;30.20;19.53;;;;;;;7.95;92.03;96006.75;6192582;23;20502;-82
2023/04/19 02:18:28;;;;;;;26.63;19.23;;;;;;;7.70;93.16;96007.03;6225664;23;20192;-83
2023/04/19 02:20:57;;;;;;;25.80;18.50;;;;;;;7.82;92.82;96003.50;6219740;23;20177;-83
2023/04/19 02:23:22;;;;;;;28.40;19.93;;;;;;;7.66;93.74;96006.44;6219708;23;20161;-83
2023/04/19 02:25:48;;;;;;;27.73;19.10;;;;;;;7.64;93.71;96001.38;6218831;23;20158;-83
2023/04/19 02:28:13;;;;;;;30.40;19.00;;;;;;;7.79;93.09;96001.16;6244341;23;20177;-83
2023/04/19 02:30:38;;;;;;;27.47;19.37;;;;;;;7.85;92.94;95995.47;6219469;23;20156;-83
2023/04/19 02:33:03;;;;;;;25.97;18.57;;;;;;;7.74;92.88;95988.56;6219375;23;20230;-83
2023/04/19 02:35:29;;;;;;;28.67;20.40;;;;;;;7.78;92.29;95996.94;6219644;23;20168;-83
2023/04/19 02:37:54;;;;;;;29.43;19.30;;;;;;;7.79;93.12;95986.47;6244332;23;20183;-83
2023/04/19 02:40:21;;;;;;;29.53;20.17;;;;;;;7.64;93.68;95982.47;6193561;23;20173;-82
2023/04/19 02:42:47;;;;;;;32.03;20.43;;;;;;;7.71;92.99;95990.59;6244069;23;20169;-83
2023/04/19 02:45:12;;;;;;;29.47;20.17;;;;;;;7.63;93.60;95996.34;6193788;23;20240;-83
2023/04/19 02:47:37;;;;;;;32.50;21.63;;;;;;;7.50;94.08;95983.53;6193610;23;20196;-83
2023/04/19 02:50:03;;;;;;;28.57;20.63;;;;;;;7.58;94.36;95983.75;6244523;23;20632;-83
2023/04/19 02:52:28;;;;;;;32.07;20.77;;;;;;;7.50;94.37;95983.53;6217887;23;20244;-83
2023/04/19 02:54:53;;;;;;;32.53;20.33;;;;;;;7.66;93.67;95978.00;6218859;23;20164;-83
2023/04/19 02:57:19;;;;;;;28.53;19.57;;;;;;;7.72;93.11;95977.53;6218211;23;20180;-83
2023/04/19 02:59:44;;;;;;;30.50;20.43;;;;;;;7.71;93.50;95972.50;6245336;23;20160;-83
2023/04/19 03:02:09;;;;;;;27.30;19.70;;;;;;;7.63;94.00;95986.81;6218028;23;20224;-82
2023/04/19 03:04:35;;;;;;;28.63;20.27;;;;;;;7.73;92.80;95983.53;6218230;23;20153;-82
2023/04/19 03:07:00;;;;;;;30.53;20.87;;;;;;;7.59;93.99;95979.41;6192128;23;20191;-83
2023/04/19 03:09:26;;;;;;;27.20;19.53;;;;;;;7.72;93.12;95980.13;6192568;23;20176;-83
2023/04/19 03:11:52;;;;;;;27.13;18.77;;;;;;;7.75;92.83;95984.22;6217791;23;20157;-83
2023/04/19 03:14:17;;;;;;;28.00;19.20;;;;;;;7.72;92.87;95974.13;6192892;23;20164;-82
2023/04/19 03:16:42;;;;;;;26.73;19.77;;;;;;;7.69;93.24;95977.78;6191881;23;20169;-83
2023/04/19 03:19:07;;;;;;;30.43;20.13;;;;;;;7.65;93.34;95971.19;6218471;23;20157;-83
2023/04/19 03:21:33;;;;;;;28.97;20.20;;;;;;;7.53;94.08;95972.97;6217948;23;20511;-83
2023/04/19 03:23:58;;;;;;;29.07;20.40;;;;;;;7.58;93.75;95970.84;6216396;23;20176;-82
2023/04/19 03:26:23;;;;;;;31.23;21.17;;;;;;;7.51;94.61;95976.59;6215488;23;20199;-82
2023/04/19 03:28:49;;;;;;;32.43;20.60;;;;;;;7.54;94.07;95978.97;6216364;23;20153;-82
2023/04/19 03:31:15;;;;;;;28.37;20.93;;;;;;;7.43;94.87;95971.22;6216564;23;20219;-82
2023/04/19 03:33:40;;;;;;;25.13;19.93;;;;;;;7.58;94.19;95976.00;6217138;23;20158;-82
2023/04/19 03:36:06;;;;;;;29.73;21.53;;;;;;;7.44;94.48;95978.03;6217548;23;20679;-82
2023/04/19 03:38:31;;;;;;;30.50;20.63;;;;;;;7.49;94.54;95976.72;6217517;23;20181;-82
2023/04/19 03:40:56;;;;;;;35.20;22.70;;;;;;;7.44;94.70;95975.44;6243095;23;20634;-82
2023/04/19 03:43:23;;;;;;;30.03;21.30;;;;;;;7.43;94.35;95964.28;6193128;23;20197;-82
2023/04/19 03:45:48;;;;;;;29.60;20.57;;;;;;;7.39;94.71;95965.44;6217469;23;20153;-82
2023/04/19 03:48:14;;;;;;;30.43;21.53;;;;;;;7.27;95.83;95958.66;6192512;23;20657;-82
2023/04/19 03:50:39;;;;;;;32.40;22.07;;;;;;;7.43;94.27;95959.13;6217764;23;20554;-82
2023/04/19 03:53:04;;;;;;;32.40;21.73;;;;;;;7.44;94.74;95954.78;6217653;23;20157;-82
2023/04/19 03:55:30;;;;;;;29.93;21.33;;;;;;;7.45;94.36;95954.66;6217815;23;20172;-82
2023/04/19 03:57:55;;;;;;;30.77;21.20;;;;;;;7.55;93.86;95958.16;6217407;23;20173;-82
2023/04/19 04:00:21;;;;;;;28.83;21.00;;;;;;;7.44;94.58;95954.78;6192529;23;20192;-83
2023/04/19 04:02:46;;;;;;;34.30;21.00;;;;;;;7.41;94.94;95958.41;6220411;23;20168;-83
2023/04/19 04:05:11;;;;;;;28.50;21.57;;;;;;;7.50;94.44;95955.09;6220070;23;20172;-83
2023/04/19 04:07:36;;;;;;;31.13;20.30;;;;;;;7.61;93.80;95952.53;6217318;23;20197;-83
2023/04/19 04:10:02;;;;;;;29.60;20.53;;;;;;;7.59;93.36;95951.81;6219438;23;20153;-81
2023/04/19 04:12:27;;;;;;;31.17;21.17;;;;;;;7.61;93.45;95951.72;6246722;23;20164;-83
2023/04/19 04:14:53;;;;;;;30.60;20.50;;;;;;;7.52;94.04;95958.41;6220541;23;20253;-82
2023/04/19 04:17:18;;;;;;;29.87;21.13;;;;;;;7.48;93.88;95957.00;6218714;23;20176;-82
2023/04/19 04:19:43;;;;;;;30.70;21.07;;;;;;;7.46;94.50;95958.88;6218573;23;20541;-82
2023/04/19 04:22:09;;;;;;;29.67;21.47;;;;;;;7.29;95.07;95961.94;6244851;23;20184;-82
2023/04/19 04:24:40;;;;;;;32.50;21.90;;;;;;;7.32;95.46;95967.69;6238532;23;20165;-82
2023/04/19 04:27:11;;;;;;;28.37;20.47;;;;;;;7.38;94.05;95964.63;6214321;23;20179;-83
2023/04/19 04:29:36;;;;;;;31.53;21.20;;;;;;;7.39;94.60;95960.28;6215905;23;20156;-82
2023/04/19 04:32:03;;;;;;;29.07;20.47;;;;;;;7.65;93.33;95953.91;6217251;23;20157;-83
2023/04/19 04:34:28;;;;;;;30.80;21.37;;;;;;;7.48;93.33;95963.91;6217559;23;20165;-82
2023/04/19 04:36:53;;;;;;;31.70;20.93;;;;;;;7.52;93.24;95960.19;6216658;23;20663;-82
2023/04/19 04:39:19;;;;;;;33.37;21.83;;;;;;;7.54;92.88;95958.28;6192268;23;20169;-83
2023/04/19 04:41:45;;;;;;;28.63;20.63;;;;;;;7.46;93.59;95964.03;6218819;23;20181;-83
2023/04/19 04:44:11;;;;;;;29.17;20.27;;;;;;;7.39;93.88;95957.69;6218933;23;20193;-84
2023/04/19 04:46:36;;;;;;;28.27;21.93;;;;;;;7.37;94.70;95962.16;6217920;23;20177;-83
2023/04/19 04:49:02;;;;;;;29.17;21.47;;;;;;;7.41;94.04;95966.16;6217805;23;20154;-82
2023/04/19 04:51:27;;;;;;;30.03;21.73;;;;;;;7.55;93.24;95960.75;6218318;23;20157;-84
2023/04/19 04:53:52;;;;;;;27.40;19.33;;;;;;;7.64;92.77;95965.19;6192042;23;20195;-82
2023/04/19 04:56:18;;;;;;;28.03;19.53;;;;;;;7.66;92.41;95958.16;6215785;23;20240;-83
2023/04/19 04:58:43;;;;;;;27.40;18.77;;;;;;;7.71;92.42;95967.31;6191632;23;20276;-83
2023/04/19 05:01:09;;;;;;;28.60;21.47;;;;;;;7.61;92.21;95960.28;6216674;23;20180;-83
2023/04/19 05:03:34;;;;;;;29.00;21.03;;;;;;;7.72;92.14;95962.03;6192526;23;20165;-83
2023/04/19 05:05:59;;;;;;;26.33;19.20;;;;;;;7.71;91.56;95960.38;6216078;23;20203;-83
2023/04/19 05:08:25;;;;;;;30.60;20.03;;;;;;;7.67;91.59;95964.13;6191667;23;20224;-83
2023/04/19 05:10:51;;;;;;;30.00;21.03;;;;;;;7.48;92.39;95962.16;6191747;23;20153;-82
2023/04/19 05:13:16;;;;;;;25.33;18.97;;;;;;;7.66;92.11;95978.81;6192248;23;20595;-82
2023/04/19 05:15:41;;;;;;;27.50;18.97;;;;;;;7.69;91.73;95964.03;6191602;23;20161;-82
2023/04/19 05:18:07;;;;;;;28.07;19.33;;;;;;;7.52;92.57;95963.59;6241340;23;20189;-82
2023/04/19 05:20:35;;;;;;;28.30;20.00;;;;;;;7.53;92.12;95960.06;6216360;23;20177;-82
2023/04/19 05:23:02;;;;;;;28.80;19.87;;;;;;;7.70;91.09;95965.69;6217293;23;20283;-81
2023/04/19 05:25:27;;;;;;;26.70;18.60;;;;;;;7.83;91.37;95969.75;6192278;23;20157;-82
2023/04/19 05:27:52;;;;;;;28.50;18.83;;;;;;;7.66;91.60;95967.66;6216145;23;20254;-82
2023/04/19 05:30:18;;;;;;;25.80;18.97;;;;;;;7.78;91.17;95976.25;6244299;23;20156;-84
2023/04/19 05:32:43;;;;;;;25.13;17.80;;;;;;;7.79;91.23;95976.13;6217155;23;20176;-83
2023/04/19 05:35:09;;;;;;;25.27;18.10;;;;;;;7.64;91.27;95978.13;6216505;23;20232;-82
2023/04/19 05:37:35;;;;;;;25.57;18.80;;;;;;;7.80;91.16;95982.13;6212703;23;20184;-82
2023/04/19 05:40:04;;;;;;;24.67;17.80;;;;;;;7.82;90.81;95977.63;6191150;23;20164;-82
2023/04/19 05:42:29;;;;;;;25.87;18.40;;;;;;;7.66;91.16;95989.16;6217464;23;20504;-82
2023/04/19 05:44:55;;;;;;;26.17;18.90;;;;;;;7.53;91.47;95985.91;6240642;23;20210;-82
2023/04/19 05:47:20;;;;;;;27.20;19.40;;;;;;;7.58;91.42;95983.75;6215378;23;20200;-83
2023/04/19 05:49:45;;;;;;;26.67;19.67;;;;;;;7.53;91.57;95983.31;6191371;23;20506;-81
2023/04/19 05:52:10;;;;;;;30.27;20.77;;;;;;;7.47;91.19;95976.03;6216250;23;20599;-82
2023/04/19 05:54:36;;;;;;;23.87;18.40;;;;;;;7.38;91.97;95982.72;6217087;23;20161;-79
2023/04/19 05:57:02;;;;;;;24.83;18.77;;;;;;;7.48;91.79;95985.41;6243873;23;20180;-77
2023/04/19 05:59:27;;;;;;;23.67;17.53;;;;;;;7.39;92.70;95988.72;6245199;23;20583;-81
2023/04/19 06:01:54;;;;;;;25.93;17.97;;;;;;;7.37;93.44;95982.84;6243731;23;20239;-83
2023/04/19 06:04:20;;;;;;;25.07;18.73;;;;;;;7.30;93.93;95990.22;6243307;23;20477;-82
2023/04/19 06:06:45;;;;;;;27.83;18.60;;;;;;;7.49;92.56;95981.06;6193100;23;20180;-82
2023/04/19 06:09:12;;;;;;;26.43;18.10;;;;;;;7.55;91.94;95986.59;6218621;23;20180;-82
2023/04/19 06:11:37;;;;;;;22.57;17.63;;;;;;;7.57;90.87;95982.13;6219907;23;20215;-82
2023/04/19 06:14:03;;;;;;;27.80;18.10;;;;;;;7.65;90.44;95989.28;6220511;23;20149;-83
2023/04/19 06:16:28;;;;;;;25.77;18.47;;;;;;;7.76;90.67;95984.09;6216960;23;20188;-83
2023/04/19 06:18:53;;;;;;;21.80;17.77;;;;;;;8.00;89.39;95993.47;6217976;23;20153;-82
2023/04/19 06:21:19;;;;;;;23.83;17.87;;;;;;;8.04;88.48;95995.72;6218665;23;20231;-83
2023/04/19 06:23:44;;;;;;;24.07;16.77;;;;;;;8.17;87.78;95991.19;6218153;23;20177;-82
2023/04/19 06:26:09;;;;;;;23.67;17.77;;;;;;;8.25;87.19;95990.59;6217353;23;20681;-83
2023/04/19 06:28:35;;;;;;;25.07;17.30;;;;;;;8.24;87.01;95992.34;6218254;23;20199;-82
2023/04/19 06:31:01;;;;;;;23.40;17.13;;;;;;;8.47;86.06;95981.94;6219748;23;20153;-82
2023/04/19 06:33:26;;;;;;;21.10;16.40;;;;;;;8.66;85.31;95983.88;6219469;23;20156;-82
2023/04/19 06:35:51;;;;;;;25.27;17.63;;;;;;;8.91;83.61;95983.47;6217822;23;20153;-83
2023/04/19 06:38:17;;;;;;;19.63;15.10;;;;;;;9.06;82.25;95973.63;6218587;23;20184;-82
2023/04/19 06:40:42;;;;;;;20.17;16.53;;;;;;;8.91;82.28;95980.06;6217784;23;20181;-82
2023/04/19 06:43:07;;;;;;;20.93;15.27;;;;;;;9.02;81.27;95990.41;6218675;23;20161;-82
2023/04/19 06:45:33;;;;;;;20.57;16.03;;;;;;;8.93;80.93;95991.16;6191511;23;20157;-83
2023/04/19 06:47:58;;;;;;;19.80;15.13;;;;;;;9.11;80.87;95994.00;6242579;23;20223;-82
2023/04/19 06:50:23;;;;;;;20.50;15.33;;;;;;;9.08;80.50;95977.72;6193418;23;20161;-81
2023/04/19 06:52:49;;;;;;;18.43;14.77;;;;;;;8.92;80.90;95979.97;6243458;23;20157;-82
2023/04/19 06:55:14;;;;;;;21.20;16.30;;;;;;;9.31;79.80;95978.41;6218825;23;20161;-82
2023/04/19 06:57:41;;;;;;;17.37;14.47;;;;;;;9.39;78.77;95979.53;6192611;23;20256;-81
2023/04/19 07:00:07;;;;;;;21.17;15.57;;;;;;;9.66;77.37;95979.78;6218107;23;20149;-82
2023/04/19 07:02:32;;;;;;;16.63;13.57;;;;;;;9.49;77.73;95980.41;6217487;23;20196;-82
2023/04/19 07:04:57;;;;;;;20.47;15.23;;;;;;;9.84;76.05;95990.34;6233045;22;20187;-80
2023/04/19 07:07:23;;;;;;;20.47;14.70;;;;;;;9.29;78.43;95982.09;6246111;22;20189;-81
2023/04/19 07:09:48;;;;;;;18.30;14.57;;;;;;;9.57;77.83;95983.16;6249267;22;20149;-80
2023/04/19 07:12:13;;;;;;;18.27;14.47;;;;;;;9.71;77.30;95980.19;6248916;22;20145;-80
2023/04/19 07:14:48;;;;;;;17.10;14.27;;;;;;;9.72;76.93;95983.59;6223371;22;20181;-81
2023/04/19 07:17:13;;;;;;;18.93;15.03;;;;;;;9.76;75.57;95978.03;6222726;22;20176;-81
2023/04/19 07:19:39;;;;;;;19.13;14.27;;;;;;;10.07;74.62;95977.97;6248787;22;20141;-82
2023/04/19 07:22:05;;;;;;;18.40;14.60;;;;;;;10.27;74.48;95977.09;6247641;22;20177;-83
2023/04/19 07:24:30;;;;;;;18.67;14.70;;;;;;;10.46;73.88;95977.09;6211655;23;20628;-82
2023/04/19 07:26:56;;;;;;;18.70;14.33;;;;;;;10.44;72.65;95984.22;6217675;23;20567;-82
2023/04/19 07:29:21;;;;;;;18.43;14.37;;;;;;;10.42;73.16;95980.09;6218243;23;20502;-82
2023/04/19 07:31:47;;;;;;;17.47;14.23;;;;;;;10.26;73.91;95975.44;6220230;23;20219;-82
2023/04/19 07:34:12;;;;;;;16.13;13.50;;;;;;;10.64;73.06;95972.03;6230206;23;20142;-82
2023/04/19 07:36:37;;;;;;;18.40;13.57;;;;;;;11.08;71.17;95980.19;6220612;23;20512;-82
2023/04/19 07:39:03;;;;;;;16.07;12.80;;;;;;;11.38;69.46;95973.13;6194402;23;20222;-81
2023/04/19 07:41:30;;;;;;;17.20;13.23;;;;;;;11.47;67.26;95967.88;6218697;23;20257;-81
2023/04/19 07:43:55;;;;;;;16.20;13.23;;;;;;;11.13;69.08;95969.34;6193709;23;20698;-82
2023/04/19 07:46:21;;;;;;;16.10;12.97;;;;;;;11.58;67.95;95967.72;6193319;23;20185;-82
2023/04/19 07:48:46;;;;;;;20.00;14.00;;;;;;;10.65;69.74;95970.25;6219088;23;20206;-82
2023/04/19 07:51:13;;;;;;;16.67;13.87;;;;;;;10.66;69.73;95975.31;6218373;23;20218;-81
2023/04/19 07:53:40;;;;;;;16.43;12.77;;;;;;;10.88;68.29;95969.00;6219535;23;20168;-83
2023/04/19 07:56:06;;;;;;;15.17;12.37;;;;;;;11.51;67.84;95969.25;6197007;23;20232;-83
2023/04/19 07:58:32;;;;;;;16.10;11.93;;;;;;;11.42;66.70;95974.50;6197047;23;20612;-82
2023/04/19 08:00:57;;;;;;;16.03;12.40;;;;;;;11.43;67.54;95966.53;6221086;23;20185;-82
2023/04/19 08:03:23;;;;;;;16.47;13.03;;;;;;;11.25;67.34;95961.25;6222244;23;20177;-82
2023/04/19 08:05:48;;;;;;;16.10;11.97;;;;;;;11.27;66.29;95955.91;6220438;23;21072;-82
2023/04/19 08:08:13;;;;;;;14.10;11.00;;;;;;;10.91;68.23;95954.91;6221140;23;20188;-82
2023/04/19 08:10:38;;;;;;;15.13;11.10;;;;;;;10.91;67.38;95953.13;6222204;23;20165;-81
2023/04/19 08:13:04;;;;;;;15.67;11.73;;;;;;;11.42;67.26;95956.28;6220837;23;20161;-82
2023/04/19 08:15:29;;;;;;;11.77;10.27;;;;;;;11.39;66.07;95962.56;6221453;23;20143;-82
2023/04/19 08:17:55;;;;;;;15.03;10.13;;;;;;;11.33;66.11;95961.38;6196003;23;20181;-81
2023/04/19 08:20:21;;;;;;;12.07;9.93;;;;;;;11.55;65.59;95960.19;6220769;23;20157;-81
2023/04/19 08:22:46;;;;;;;13.07;10.80;;;;;;;11.74;65.44;95955.84;6245548;23;20157;-81
2023/04/19 08:25:12;;;;;;;12.07;10.00;;;;;;;12.01;63.42;95953.25;6219144;23;20497;-81
2023/04/19 08:27:37;;;;;;;13.60;11.00;;;;;;;12.23;62.19;95961.63;6219363;23;20180;-82
2023/04/19 08:30:02;;;;;;;13.27;9.87;;;;;;;12.29;61.16;95956.66;6245066;23;20161;-81
2023/04/19 08:32:28;;;;;;;12.40;9.90;;;;;;;12.24;61.37;95953.69;6193873;23;20493;-83
2023/04/19 08:34:53;;;;;;;13.00;10.27;;;;;;;12.27;61.44;95952.56;6220120;23;20157;-82
2023/04/19 08:37:18;;;;;;;10.93;9.10;;;;;;;12.62;60.00;95942.13;6193222;23;20177;-82
2023/04/19 08:39:44;;;;;;;13.73;9.67;;;;;;;12.83;58.39;95941.81;6195722;23;20188;-82
2023/04/19 08:42:09;;;;;;;12.17;9.37;;;;;;;13.16;58.39;95948.06;6221200;23;20191;-82
2023/04/19 08:44:39;;;;;;;12.00;9.13;;;;;;;13.08;58.32;95944.59;6220293;23;20203;-81
2023/04/19 08:47:05;;;;;;;9.73;8.73;;;;;;;12.50;59.59;95952.94;6218471;23;20185;-80
2023/04/19 08:49:34;;;;;;;12.43;9.30;;;;;;;11.56;60.97;95956.63;6218933;23;20611;-82
2023/04/19 08:52:01;;;;;;;16.33;9.90;;;;;;;11.07;61.71;95955.16;6219580;23;20236;-82
2023/04/19 08:54:28;;;;;;;11.13;9.80;;;;;;;11.06;63.33;95954.34;6220088;23;20157;-82
2023/04/19 08:56:53;;;;;;;12.27;9.73;;;;;;;11.05;63.27;95949.28;6218150;23;20227;-82
2023/04/19 08:59:19;;;;;;;12.90;10.40;;;;;;;11.09;64.44;95939.41;6194262;23;20161;-82
2023/04/19 09:01:44;;;;;;;14.50;10.37;;;;;;;11.35;62.12;95943.84;6219338;23;20815;-83
2023/04/19 09:04:09;;;;;;;11.37;9.87;;;;;;;11.32;62.73;95943.31;6219811;23;20168;-80
2023/04/19 09:06:36;;;;;;;15.20;10.30;;;;;;;11.11;63.31;95945.28;6194330;23;20185;-82
2023/04/19 09:09:15;;;;;;;12.83;10.87;;;;;;;11.40;63.41;95940.00;6218739;23;20201;-84
2023/04/19 09:11:40;;;;;;;12.80;11.33;;;;;;;11.75;62.40;95932.31;6220587;23;20164;-83
2023/04/19 09:14:10;;;;;;;14.77;11.10;;;;;;;11.63;63.17;95931.66;6218356;23;20157;-83
2023/04/19 09:16:36;;;;;;;12.67;11.07;;;;;;;11.82;63.20;95940.38;6218555;23;20649;-81
2023/04/19 09:19:02;;;;;;;12.07;10.77;;;;;;;11.77;62.67;95938.19;6194712;23;20193;-82
2023/04/19 09:21:29;;;;;;;13.53;10.73;;;;;;;11.54;63.64;95937.75;6194585;23;20208;-82
2023/04/19 09:23:54;;;;;;;13.33;10.50;;;;;;;10.80;63.99;95936.88;6194317;23;20157;-80
2023/04/19 09:26:20;;;;;;;14.47;11.27;;;;;;;11.05;64.01;95933.69;6218163;23;20156;-82
2023/04/19 09:29:05;;;;;;;14.30;10.73;;;;;;;10.91;64.38;95931.53;6218985;23;20165;-83
2023/04/19 09:31:32;;;;;;;12.93;11.10;;;;;;;11.04;64.22;95934.63;6218876;23;20156;-81
2023/04/19 09:33:57;;;;;;;12.47;10.83;;;;;;;11.28;64.03;95932.38;6245165;23;20153;-81
2023/04/19 09:36:32;;;;;;;14.97;11.40;;;;;;;10.95;64.18;95930.28;6244168;23;20235;-80
2023/04/19 09:38:58;;;;;;;12.57;11.27;;;;;;;11.20;64.04;95928.84;6217475;23;20202;-81
2023/04/19 09:41:24;;;;;;;14.47;9.90;;;;;;;10.95;64.50;95920.69;6218095;23;20181;-79
2023/04/19 09:43:51;;;;;;;13.00;9.83;;;;;;;11.18;64.15;95912.56;6192298;23;20164;-80
2023/04/19 09:48:45;;;;;;;11.90;10.70;;;;;;;11.38;62.72;95916.72;6196196;23;20205;-80
2023/04/19 09:51:11;;;;;;;13.90;9.93;;;;;;;11.51;63.48;95919.84;6163285;23;20225;-79
2023/04/19 09:53:38;;;;;;;13.47;10.80;;;;;;;11.67;62.23;95908.00;6187565;23;20236;-80
2023/04/19 09:56:04;;;;;;;12.40;10.70;;;;;;;11.91;61.72;95910.88;6186022;23;20220;-82
2023/04/19 09:58:30;;;;;;;14.37;11.07;;;;;;;12.12;61.19;95906.22;6236338;23;20180;-81
2023/04/19 10:00:57;;;;;;;13.77;11.57;;;;;;;11.89;61.25;95903.22;6188764;23;20181;-82
2023/04/19 10:03:24;;;;;;;12.60;10.40;;;;;;;11.98;61.09;95888.50;6188402;23;20164;-81
2023/04/19 10:05:50;;;;;;;14.03;11.23;;;;;;;11.76;61.84;95905.34;6212045;23;20168;-81
2023/04/19 10:08:16;;;;;;;15.57;11.60;;;;;;;11.11;64.64;95903.69;6213206;23;20184;-81
2023/04/19 10:10:44;;;;;;;15.00;11.77;;;;;;;11.29;65.18;95894.19;6187441;23;20211;-81
2023/04/19 10:13:15;;;;;;;15.60;11.10;;;;;;;11.71;63.05;95898.91;6240027;23;20154;-82
2023/04/19 10:15:42;;;;;;;12.53;10.90;;;;;;;11.57;63.95;95898.47;6239070;23;20157;-81
2023/04/19 10:18:08;;;;;;;12.73;9.77;;;;;;;11.20;63.46;95903.66;6213769;23;20264;-82
2023/04/19 10:20:52;;;;;;;12.57;10.80;;;;;;;11.05;64.40;95900.72;6214640;23;20244;-81
2023/04/19 10:23:19;;;;;;;13.33;10.30;;;;;;;11.08;64.52;95897.00;6219117;23;20171;-81
2023/04/19 10:25:45;;;;;;;13.43;10.17;;;;;;;11.24;65.44;95894.63;6219156;23;20150;-89
2023/04/19 10:28:11;;;;;;;13.23;10.37;;;;;;;11.13;65.07;95887.03;6192560;23;20259;-82
2023/04/19 10:30:55;;;;;;;11.57;10.17;;;;;;;11.21;64.46;95888.88;6247443;23;20150;-83
2023/04/19 10:33:30;;;;;;;13.83;10.40;;;;;;;11.51;64.21;95890.41;6194989;23;20253;-81
2023/04/19 10:35:57;;;;;;;11.50;10.20;;;;;;;11.56;64.39;95889.00;6220054;23;20615;-81
2023/04/19 10:38:48;;;;;;;14.03;9.77;;;;;;;11.43;64.31;95887.72;6219495;23;20515;-83
2023/04/19 10:41:18;;;;;;;14.67;11.03;;;;;;;11.06;65.20;95889.38;6219486;23;20176;-81
2023/04/19 10:43:56;;;;;;;16.60;13.30;;;;;;;11.37;64.38;95875.28;6194667;23;20146;-83
2023/04/19 10:46:24;;;;;;;13.43;11.53;;;;;;;11.02;64.78;95877.59;6244516;23;20145;-82
2023/04/19 10:49:08;;;;;;;12.17;10.03;;;;;;;11.28;64.84;95872.56;6219308;23;20169;-83
2023/04/19 10:51:35;;;;;;;12.90;9.97;;;;;;;11.07;65.03;95874.59;6194029;23;20181;-82
2023/04/19 10:54:29;;;;;;;11.77;9.27;;;;;;;11.30;64.55;95862.03;6217698;23;20165;-81
2023/04/19 10:57:05;;;;;;;12.53;10.13;;;;;;;11.23;65.49;95861.00;6214772;23;20183;-83
2023/04/19 10:59:35;;;;;;;12.50;9.80;;;;;;;10.98;65.66;95860.66;6193182;23;20157;-81
2023/04/19 11:02:20;;;;;;;13.43;10.00;;;;;;;11.07;66.34;95859.81;6218441;23;20177;-80
2023/04/19 11:04:49;;;;;;;12.87;10.23;;;;;;;10.73;67.33;95848.31;6202082;23;20157;-84
2023/04/19 11:07:16;;;;;;;12.97;10.33;;;;;;;10.98;66.90;95842.47;6217870;23;20557;-83
2023/04/19 11:09:49;;;;;;;11.57;9.67;;;;;;;10.67;67.89;95841.88;6218009;23;20161;-81
2023/04/19 11:12:16;;;;;;;12.43;9.93;;;;;;;10.71;68.25;95845.03;6245127;23;20181;-83
2023/04/19 11:14:47;;;;;;;11.23;9.57;;;;;;;10.89;67.49;95839.91;6216827;23;20157;-83
2023/04/19 11:17:17;;;;;;;9.87;8.87;;;;;;;10.83;67.49;95837.88;6217086;23;20181;-83
2023/04/19 11:19:44;;;;;;;9.43;8.17;;;;;;;10.67;68.23;95843.66;6218380;23;20149;-83
2023/04/19 11:22:10;;;;;;;11.50;9.67;;;;;;;10.53;68.75;95836.34;6192159;23;20238;-81
2023/04/19 11:24:45;;;;;;;13.43;10.00;;;;;;;10.72;67.90;95842.28;6192526;23;20161;-85